createdAt,value
2022-12-25T00:00:16.672Z,29.49
2022-12-25T00:01:11.162Z,29.51
2022-12-25T00:02:10.111Z,29.49
2022-12-25T01:39:06.078Z,29.44
2022-12-25T01:40:05.057Z,29.46
2022-12-25T01:41:05.034Z,29.47
2022-12-25T01:42:04.962Z,29.46
2022-12-25T01:43:04.925Z,29.47
2022-12-25T01:44:04.885Z,29.44
2022-12-25T01:45:04.806Z,29.47
2022-12-25T01:46:04.796Z,29.47
2022-12-25T01:48:04.683Z,29.47
2022-12-25T01:49:04.622Z,29.46
2022-12-25T01:50:04.549Z,29.43
2022-12-25T01:51:04.505Z,29.45
2022-12-25T01:52:04.439Z,29.47
2022-12-25T01:53:04.399Z,29.48
2022-12-25T01:54:04.367Z,29.44
2022-12-25T01:55:04.416Z,29.50
2022-12-25T01:56:04.231Z,29.40
2022-12-25T01:57:04.201Z,29.44
2022-12-25T01:58:04.118Z,29.43
2022-12-25T01:59:04.072Z,29.43
2022-12-25T02:00:04.017Z,29.47
2022-12-25T02:01:04.029Z,29.46
2022-12-25T02:02:04.047Z,29.41
2022-12-25T02:03:03.919Z,29.40
2022-12-25T02:04:03.802Z,29.46
2022-12-25T02:05:03.792Z,29.43
2022-12-25T02:06:03.709Z,29.41
2022-12-25T02:07:03.639Z,29.39
2022-12-25T02:08:03.625Z,29.41
2022-12-25T02:09:03.551Z,29.41
2022-12-25T02:10:03.514Z,29.45
2022-12-25T02:22:03.019Z,29.41
2022-12-25T02:23:02.788Z,29.44
2022-12-25T02:24:02.751Z,29.40
2022-12-25T02:26:02.664Z,29.39
2022-12-25T02:27:02.708Z,29.36
2022-12-25T02:28:02.546Z,29.43
2022-12-25T02:29:02.486Z,29.44
2022-12-25T02:30:02.419Z,29.41
2022-12-25T02:31:02.353Z,29.44
2022-12-25T02:32:02.381Z,29.46
2022-12-25T02:33:02.263Z,29.41
2022-12-25T02:34:02.203Z,29.40
2022-12-25T02:35:02.137Z,29.40
2022-12-25T02:36:02.082Z,29.43
2022-12-25T02:37:02.029Z,29.38
2022-12-25T02:38:01.988Z,29.41
2022-12-25T02:39:01.948Z,29.43
2022-12-25T02:40:01.870Z,29.40
2022-12-25T02:41:01.815Z,29.43
2022-12-25T02:42:01.753Z,29.43
2022-12-25T02:43:01.702Z,29.44
2022-12-25T02:44:01.635Z,29.38
2022-12-25T02:45:01.599Z,29.44
2022-12-25T02:46:01.573Z,29.40
2022-12-25T02:47:01.461Z,29.40
2022-12-25T02:48:01.397Z,29.47
2022-12-25T02:49:01.359Z,29.40
2022-12-25T02:50:01.285Z,29.37
2022-12-25T02:51:01.225Z,29.43
2022-12-25T02:52:01.186Z,29.45
2022-12-25T02:53:01.121Z,29.41
2022-12-25T02:54:01.078Z,29.43
2022-12-25T02:55:01.027Z,29.44
2022-12-25T02:56:00.959Z,29.41
2022-12-25T02:57:00.919Z,29.44
2022-12-25T02:58:00.862Z,29.45
2022-12-25T02:59:00.820Z,29.43
2022-12-25T03:00:00.773Z,29.37
2022-12-25T03:01:00.826Z,29.41
2022-12-25T03:02:00.853Z,29.40
2022-12-25T03:03:00.636Z,29.41
2022-12-25T03:04:00.521Z,29.44
2022-12-25T03:05:00.519Z,29.40
2022-12-25T03:06:00.468Z,29.40
2022-12-25T03:07:00.394Z,29.44
2022-12-25T03:08:00.332Z,29.40
2022-12-25T03:09:00.293Z,29.44
2022-12-25T03:10:00.250Z,29.38
2022-12-25T03:11:00.185Z,29.41
2022-12-25T03:12:00.165Z,29.37
2022-12-25T03:13:00.144Z,29.44
2022-12-25T06:34:50.180Z,29.02
2022-12-25T06:35:50.155Z,29.04
2022-12-25T09:02:42.981Z,28.34
2022-12-25T09:03:42.929Z,28.27
2022-12-25T09:04:42.772Z,28.19
2022-12-25T09:05:42.719Z,28.31
2022-12-25T09:06:42.649Z,28.36
2022-12-25T09:07:42.644Z,28.26
2022-12-25T09:08:48.053Z,28.29
2022-12-25T09:10:42.450Z,28.43
2022-12-25T09:11:42.392Z,28.56
2022-12-25T09:12:42.356Z,28.47
2022-12-25T09:13:42.295Z,28.40
2022-12-25T09:14:42.241Z,28.47
2022-12-25T09:15:42.221Z,28.38
2022-12-25T09:16:42.140Z,28.39
2022-12-25T09:17:42.084Z,28.29
2022-12-25T09:18:42.062Z,28.11
2022-12-25T09:19:41.975Z,28.01
2022-12-25T09:20:41.927Z,28.03
2022-12-25T09:21:41.866Z,27.97
2022-12-25T09:23:41.790Z,27.90
2022-12-25T09:24:41.715Z,27.87
2022-12-25T09:25:41.665Z,27.82
2022-12-25T09:26:41.665Z,27.82
2022-12-25T09:27:41.558Z,27.82
2022-12-25T09:28:46.610Z,27.78
2022-12-25T09:30:41.452Z,27.75
2022-12-25T09:31:41.373Z,27.75
2022-12-25T09:32:41.323Z,27.68
2022-12-25T09:33:41.283Z,27.71
2022-12-25T09:34:41.241Z,27.62
2022-12-25T09:35:41.166Z,27.61
2022-12-25T09:36:41.114Z,27.64
2022-12-25T09:37:41.064Z,27.64
2022-12-25T09:38:41.014Z,27.57
2022-12-25T09:39:46.395Z,27.61
2022-12-25T09:41:40.870Z,27.57
2022-12-25T09:42:40.807Z,27.54
2022-12-25T09:43:40.753Z,27.56
2022-12-25T09:44:40.703Z,27.46
2022-12-25T09:45:40.629Z,27.47
2022-12-25T09:46:40.629Z,27.45
2022-12-25T09:47:40.525Z,27.48
2022-12-25T09:48:40.471Z,27.43
2022-12-25T09:49:40.426Z,27.44
2022-12-25T09:50:40.379Z,27.37
2022-12-25T09:51:40.312Z,27.36
2022-12-25T09:52:40.283Z,27.31
2022-12-25T09:53:40.219Z,27.29
2022-12-25T09:54:40.161Z,27.28
2022-12-25T09:55:40.110Z,27.23
2022-12-25T11:19:34.858Z,22.83
2022-12-25T11:20:34.802Z,22.75
2022-12-25T11:21:34.707Z,22.77
2022-12-25T11:22:34.686Z,22.66
2022-12-25T11:23:34.529Z,22.70
2022-12-25T11:24:34.453Z,22.70
2022-12-25T11:25:34.367Z,22.70
2022-12-25T11:26:34.266Z,22.67
2022-12-25T11:27:34.197Z,22.68
2022-12-25T11:28:34.102Z,22.62
2022-12-25T11:29:34.024Z,22.62
2022-12-25T11:30:33.967Z,22.60
2022-12-25T11:31:33.968Z,22.61
2022-12-25T11:32:33.785Z,22.61
2022-12-25T11:33:33.682Z,22.58
2022-12-25T11:34:33.593Z,22.61
2022-12-25T11:35:33.524Z,22.65
2022-12-25T11:36:33.433Z,22.71
2022-12-25T11:37:33.346Z,22.71
2022-12-25T11:38:33.277Z,22.64
2022-12-25T11:39:33.181Z,22.70
2022-12-25T11:40:33.114Z,22.64
2022-12-25T11:41:33.024Z,22.70
2022-12-25T11:42:32.932Z,22.67
2022-12-25T11:43:32.855Z,22.67
2022-12-25T11:44:32.766Z,22.61
2022-12-25T11:45:32.687Z,22.58
2022-12-25T11:46:32.612Z,22.61
2022-12-25T11:47:32.524Z,22.67
2022-12-25T11:48:32.426Z,22.67
2022-12-25T11:49:32.344Z,22.55
2022-12-25T11:50:32.271Z,22.45
2022-12-25T11:51:32.181Z,22.45
2022-12-25T11:52:32.110Z,22.50
2022-12-25T11:53:32.012Z,22.53
2022-12-25T11:54:31.941Z,22.53
2022-12-25T11:55:31.863Z,22.57
2022-12-25T11:56:31.759Z,22.60
2022-12-25T11:57:31.686Z,22.60
2022-12-25T11:58:31.606Z,22.60
2022-12-25T11:59:31.528Z,22.66
2022-12-25T12:00:31.439Z,22.72
2022-12-25T12:01:31.511Z,22.77
2022-12-25T12:02:31.358Z,22.92
2022-12-25T12:03:31.305Z,22.98
2022-12-25T12:04:35.132Z,23.13
2022-12-25T12:05:32.074Z,23.17
2022-12-25T12:06:30.969Z,23.39
2022-12-25T12:07:30.897Z,23.47
2022-12-25T12:08:30.814Z,23.60
2022-12-25T12:09:30.762Z,23.73
2022-12-25T12:10:30.675Z,23.80
2022-12-25T12:11:30.616Z,23.91
2022-12-25T12:12:30.548Z,23.95
2022-12-25T12:13:30.475Z,24.03
2022-12-25T12:14:30.405Z,24.10
2022-12-25T12:15:30.362Z,24.13
2022-12-25T12:16:30.314Z,24.13
2022-12-25T12:17:30.206Z,24.06
2022-12-25T12:18:30.185Z,23.88
2022-12-25T12:19:30.120Z,23.69
2022-12-25T13:18:24.936Z,16.85
2022-12-25T13:19:24.843Z,17.03
2022-12-25T13:20:24.742Z,17.05
2022-12-25T13:21:24.652Z,16.96
2022-12-25T13:22:24.560Z,16.94
2022-12-25T13:23:24.455Z,17.09
2022-12-25T13:24:24.356Z,17.73
2022-12-25T13:25:24.247Z,18.40
2022-12-25T13:26:24.160Z,19.04
2022-12-25T13:27:24.050Z,19.64
2022-12-25T13:28:23.988Z,20.16
2022-12-25T13:29:23.882Z,20.60
2022-12-25T13:30:23.794Z,21.09
2022-12-25T13:31:23.744Z,21.43
2022-12-25T13:32:23.655Z,21.88
2022-12-25T13:33:23.637Z,22.18
2022-12-25T13:34:23.548Z,22.55
2022-12-25T13:35:23.456Z,22.88
2022-12-25T13:36:23.344Z,23.09
2022-12-25T13:37:23.298Z,23.36
2022-12-25T13:38:23.215Z,23.54
2022-12-25T13:39:23.151Z,23.71
2022-12-25T13:40:23.071Z,23.93
2022-12-25T13:41:23.015Z,24.13
2022-12-25T13:42:22.962Z,24.29
2022-12-25T13:43:22.890Z,24.49
2022-12-25T13:44:22.838Z,24.60
2022-12-25T13:45:22.779Z,24.68
2022-12-25T13:46:22.759Z,24.86
2022-12-25T13:47:22.672Z,24.94
2022-12-25T13:48:22.584Z,25.02
2022-12-25T13:49:22.507Z,25.15
2022-12-25T13:50:22.458Z,25.25
2022-12-25T13:51:22.379Z,25.37
2022-12-25T13:52:22.368Z,25.44
2022-12-25T13:53:22.259Z,25.52
2022-12-25T13:54:22.205Z,25.59
2022-12-25T13:55:22.200Z,25.67
2022-12-25T13:56:22.080Z,25.77
2022-12-25T13:57:22.033Z,25.82
2022-12-25T13:58:21.983Z,25.86
2022-12-25T13:59:21.922Z,25.90
2022-12-25T14:00:21.843Z,25.94
2022-12-25T14:01:21.941Z,26.04
2022-12-25T14:02:21.833Z,26.05
2022-12-25T14:03:21.734Z,26.09
2022-12-25T14:04:21.608Z,26.14
2022-12-25T14:05:21.527Z,26.14
2022-12-25T14:06:21.488Z,26.23
2022-12-25T14:07:21.428Z,26.25
2022-12-25T14:08:21.385Z,26.29
2022-12-25T14:09:21.308Z,26.30
2022-12-25T14:10:21.236Z,26.35
2022-12-25T14:11:21.181Z,26.33
2022-12-25T14:12:21.151Z,26.38
2022-12-25T14:13:21.087Z,26.43
2022-12-25T14:14:20.996Z,26.47
2022-12-25T14:15:20.927Z,26.49
2022-12-25T14:16:20.933Z,26.50
2022-12-25T14:17:20.818Z,26.53
2022-12-25T14:18:20.769Z,26.52
2022-12-25T14:19:20.691Z,26.60
2022-12-25T14:20:20.626Z,26.60
2022-12-25T14:21:20.589Z,26.60
2022-12-25T14:22:20.524Z,26.64
2022-12-25T14:23:20.463Z,26.68
2022-12-25T14:24:20.418Z,26.65
2022-12-25T14:25:20.361Z,26.72
2022-12-25T14:26:20.314Z,26.72
2022-12-25T14:27:20.265Z,26.70
2022-12-25T14:28:20.193Z,26.80
2022-12-25T14:29:25.014Z,26.76
2022-12-25T14:30:21.087Z,26.81
2022-12-25T16:52:12.406Z,27.72
2022-12-25T16:53:12.355Z,27.68
2022-12-25T17:04:11.845Z,27.75
2022-12-25T17:08:11.588Z,27.73
2022-12-25T17:16:11.178Z,27.66
2022-12-25T17:26:10.618Z,27.63
2022-12-25T17:27:10.548Z,27.64
2022-12-25T17:28:10.509Z,27.63
2022-12-25T17:29:10.470Z,27.64
2022-12-25T17:30:10.407Z,27.67
2022-12-25T17:31:10.393Z,27.59
2022-12-25T17:32:10.286Z,27.59
2022-12-25T17:33:10.238Z,27.58
2022-12-25T17:34:10.175Z,27.62
2022-12-25T17:35:10.116Z,27.56
2022-12-25T19:16:04.856Z,27.45
2022-12-25T19:17:04.742Z,27.47
2022-12-25T19:18:04.694Z,27.42
2022-12-25T19:19:04.630Z,27.44
2022-12-25T19:20:04.591Z,27.42
2022-12-25T19:21:04.551Z,27.47
2022-12-25T19:22:04.494Z,27.45
2022-12-25T19:23:04.455Z,27.45
2022-12-25T19:24:04.375Z,27.49
2022-12-25T19:25:04.330Z,27.44
2022-12-25T19:26:04.262Z,27.41
2022-12-25T19:27:04.205Z,27.44
2022-12-25T19:28:04.157Z,27.45
2022-12-25T19:29:04.109Z,27.42
2022-12-25T19:30:04.056Z,27.48
2022-12-25T19:31:04.012Z,27.48
2022-12-25T19:32:04.020Z,27.48
2022-12-25T19:33:03.915Z,27.44
2022-12-25T19:34:03.843Z,27.48
2022-12-25T19:35:03.816Z,27.45
2022-12-25T19:36:03.741Z,27.48
2022-12-25T19:37:03.696Z,27.44
2022-12-25T19:38:03.643Z,27.45
2022-12-25T19:39:03.600Z,27.44
2022-12-25T19:40:03.555Z,27.48
2022-12-25T19:41:03.497Z,27.48
2022-12-25T19:42:03.435Z,27.48
2022-12-25T19:43:03.409Z,27.42
2022-12-25T19:44:03.330Z,27.48
2022-12-25T19:45:03.294Z,27.46
2022-12-25T19:46:03.311Z,27.48
2022-12-25T19:47:03.180Z,27.47
2022-12-25T19:48:03.129Z,27.39
2022-12-25T19:49:03.069Z,27.45
2022-12-25T19:50:03.861Z,27.45
2022-12-25T19:51:02.965Z,27.44
2022-12-25T19:52:02.927Z,27.45
2022-12-25T19:53:02.887Z,27.45
2022-12-25T19:54:02.824Z,27.44
2022-12-25T19:55:02.750Z,27.45
2022-12-25T19:56:02.706Z,27.42
2022-12-25T19:57:02.697Z,27.42
2022-12-25T19:58:02.607Z,27.45
2022-12-25T19:59:02.548Z,27.42
2022-12-25T20:00:02.507Z,27.44
2022-12-25T20:01:02.467Z,27.41
2022-12-25T20:02:02.572Z,27.41
2022-12-25T20:03:02.432Z,27.44
2022-12-25T20:04:02.293Z,27.39
2022-12-25T20:05:02.247Z,27.41
2022-12-25T20:06:02.186Z,27.45
2022-12-25T20:07:02.155Z,27.41
2022-12-25T20:08:02.082Z,27.38
2022-12-25T20:09:02.023Z,27.41
2022-12-25T20:10:01.971Z,27.46
2022-12-25T20:11:01.916Z,27.39
2022-12-25T20:12:01.869Z,27.46
2022-12-25T20:13:01.814Z,27.45
2022-12-25T20:14:01.778Z,27.44
2022-12-25T20:15:01.716Z,27.41
2022-12-25T20:16:01.816Z,27.38
2022-12-25T20:17:01.636Z,27.41
2022-12-25T20:18:01.527Z,27.42
2022-12-25T20:19:01.486Z,27.37
2022-12-25T20:20:01.416Z,27.39
2022-12-25T20:21:01.392Z,27.35
2022-12-25T20:22:01.318Z,27.34
2022-12-25T20:23:01.264Z,27.39
2022-12-25T20:24:01.267Z,27.41
2022-12-25T20:25:01.159Z,27.39
2022-12-25T20:26:01.111Z,27.38
2022-12-25T20:27:01.109Z,27.39
2022-12-25T20:28:01.007Z,27.39
2022-12-25T20:29:00.963Z,27.38
2022-12-25T20:30:00.914Z,27.36
2022-12-25T20:31:00.872Z,27.41
2022-12-25T20:32:00.846Z,27.41
2022-12-25T20:33:00.778Z,27.35
2022-12-25T20:34:00.720Z,27.37
2022-12-25T20:35:00.684Z,27.42
2022-12-25T20:36:00.589Z,27.41
2022-12-25T20:37:00.560Z,27.39
2022-12-25T20:38:00.490Z,27.32
2022-12-25T20:39:00.447Z,27.39
2022-12-25T20:40:00.447Z,27.39
2022-12-25T20:41:25.823Z,27.37
2022-12-25T20:42:00.339Z,27.40
2022-12-25T20:43:00.251Z,27.40
2022-12-25T20:44:00.197Z,27.36
2022-12-25T20:45:00.133Z,27.36
2022-12-25T20:46:00.154Z,27.35
2022-12-25T20:52:59.731Z,27.36
2022-12-25T20:59:59.336Z,27.34
2022-12-25T21:00:59.291Z,27.32
2022-12-25T21:01:59.499Z,27.33
2022-12-25T21:02:59.258Z,27.35
2022-12-25T21:03:59.189Z,27.37
2022-12-25T21:04:59.063Z,27.33
2022-12-25T21:05:59.000Z,27.36
2022-12-25T21:06:58.964Z,27.30
2022-12-25T21:07:58.890Z,27.32
2022-12-25T21:08:58.828Z,27.32
2022-12-25T21:09:58.769Z,27.36
2022-12-25T21:10:58.745Z,27.29
2022-12-25T21:11:58.702Z,27.37
2022-12-25T21:12:58.609Z,27.33
2022-12-25T21:13:58.576Z,27.30
2022-12-25T21:14:58.500Z,27.30
2022-12-25T21:15:58.444Z,27.26
2022-12-25T21:16:58.388Z,27.29
2022-12-25T21:17:58.307Z,27.32
2022-12-25T21:18:58.259Z,27.28
2022-12-25T21:19:58.205Z,27.27
2022-12-25T21:20:58.142Z,27.29
2022-12-25T21:21:58.098Z,27.27
2022-12-25T21:22:58.067Z,27.30
2022-12-25T21:23:58.009Z,27.32
2022-12-25T21:24:57.920Z,27.35
2022-12-25T21:25:57.862Z,27.29
2022-12-25T21:26:57.796Z,27.33
2022-12-25T21:27:57.791Z,27.29
2022-12-25T21:28:57.696Z,27.29
2022-12-25T21:29:57.634Z,27.30
2022-12-25T21:30:57.622Z,27.29
2022-12-25T21:31:57.507Z,27.29
2022-12-25T21:32:57.449Z,27.27
2022-12-25T21:33:57.421Z,27.31
2022-12-25T21:34:57.338Z,27.28
2022-12-25T21:35:57.280Z,27.33
2022-12-25T21:36:57.216Z,27.28
2022-12-25T21:37:57.161Z,27.26
2022-12-25T21:38:57.100Z,27.32
2022-12-25T21:39:57.065Z,27.29
2022-12-25T21:40:57.014Z,27.27
2022-12-25T21:41:56.934Z,27.30
2022-12-25T21:42:56.894Z,27.30
2022-12-25T21:43:56.834Z,27.25
2022-12-25T21:44:56.785Z,27.29
2022-12-25T21:45:56.765Z,27.26
2022-12-25T21:46:56.662Z,27.27
2022-12-25T21:48:01.955Z,27.27
2022-12-25T21:48:57.551Z,27.26
2022-12-25T21:49:56.481Z,27.29
2022-12-25T21:50:56.412Z,27.22
2022-12-25T21:51:56.353Z,27.29
2022-12-25T21:52:56.303Z,27.30
2022-12-25T21:53:56.235Z,27.29
2022-12-25T21:54:56.176Z,27.26
2022-12-25T21:55:56.130Z,27.30
2022-12-25T21:56:56.070Z,27.26
2022-12-25T21:57:56.017Z,27.30
2022-12-25T21:58:55.950Z,27.27
2022-12-25T21:59:55.892Z,27.22
2022-12-25T22:00:55.903Z,27.30
2022-12-25T22:01:55.863Z,27.24
2022-12-25T22:02:55.796Z,27.23
2022-12-25T22:03:55.680Z,27.23
2022-12-25T22:04:55.607Z,27.23
2022-12-25T22:05:55.539Z,27.22
2022-12-25T22:06:55.482Z,27.22
2022-12-25T22:07:55.457Z,27.24
2022-12-25T22:08:55.381Z,27.19
2022-12-25T22:09:55.309Z,27.24
2022-12-25T22:10:55.251Z,27.30
2022-12-25T22:11:55.219Z,27.22
2022-12-25T22:12:55.280Z,27.23
2022-12-25T22:13:55.085Z,27.23
2022-12-25T22:14:56.706Z,27.22
2022-12-25T22:15:55.010Z,27.23
2022-12-25T22:16:54.890Z,27.22
2022-12-25T22:17:54.847Z,27.23
2022-12-25T22:18:54.781Z,27.20
2022-12-25T22:19:54.756Z,27.23
2022-12-25T22:20:54.695Z,27.22
2022-12-25T22:21:54.596Z,27.20
2022-12-25T22:22:54.569Z,27.23
2022-12-25T22:23:54.487Z,27.18
2022-12-25T22:24:54.431Z,27.23
2022-12-25T22:25:54.363Z,27.18
2022-12-25T22:26:54.323Z,27.20
2022-12-25T22:27:54.260Z,27.24
2022-12-25T22:28:54.208Z,27.20
2022-12-25T22:29:54.124Z,27.16
2022-12-25T22:30:54.151Z,27.16
2022-12-25T22:31:54.050Z,27.23
2022-12-25T22:32:53.980Z,27.20
2022-12-25T22:33:53.887Z,27.20
2022-12-25T22:34:53.840Z,27.17
2022-12-25T22:35:53.801Z,27.16
2022-12-25T22:36:53.721Z,27.17
2022-12-25T22:37:53.663Z,27.19
2022-12-25T22:38:53.643Z,27.14
2022-12-25T22:39:53.557Z,27.17
2022-12-25T22:40:53.496Z,27.13
2022-12-25T22:41:53.436Z,27.16
2022-12-25T22:42:53.380Z,27.13
2022-12-25T22:44:16.562Z,27.14
2022-12-25T22:44:54.271Z,27.17
2022-12-25T22:45:53.241Z,27.15
2022-12-25T22:46:53.164Z,27.20
2022-12-25T22:47:53.106Z,27.17
2022-12-25T22:48:53.040Z,27.16
2022-12-25T22:49:52.980Z,27.13
2022-12-25T22:50:52.931Z,27.17
2022-12-25T22:51:52.865Z,27.15
2022-12-25T22:52:52.836Z,27.16
2022-12-25T22:53:52.762Z,27.11
2022-12-25T22:54:52.713Z,27.14
2022-12-25T22:55:52.670Z,27.16
2022-12-25T22:56:52.701Z,27.15
2022-12-25T22:57:52.580Z,27.13
2022-12-25T22:58:52.494Z,27.15
2022-12-25T22:59:52.649Z,27.09
2022-12-25T23:00:52.389Z,27.13
2022-12-25T23:01:52.392Z,27.11
2022-12-25T23:02:52.473Z,27.08
2022-12-25T23:03:52.288Z,27.13
2022-12-25T23:04:52.187Z,27.17
2022-12-25T23:05:52.113Z,27.09
2022-12-25T23:06:52.068Z,27.11
2022-12-25T23:07:52.011Z,27.13
2022-12-25T23:08:51.940Z,27.11
2022-12-25T23:09:51.894Z,27.11
2022-12-25T23:10:51.837Z,27.10
2022-12-25T23:11:51.815Z,27.11
2022-12-25T23:12:51.723Z,27.17
2022-12-25T23:13:51.660Z,27.10
2022-12-25T23:14:51.604Z,27.14
2022-12-25T23:15:51.622Z,27.14
2022-12-25T23:16:51.497Z,27.13
2022-12-25T23:17:51.437Z,27.14
2022-12-25T23:18:51.388Z,27.13
2022-12-25T23:19:51.316Z,27.14
2022-12-25T23:20:51.268Z,27.08
2022-12-25T23:21:51.203Z,27.11
2022-12-25T23:22:51.144Z,27.13
2022-12-25T23:23:51.085Z,27.14
2022-12-25T23:24:51.083Z,27.18
2022-12-25T23:25:51.009Z,27.11
2022-12-25T23:26:50.934Z,27.14
2022-12-25T23:27:50.895Z,27.13
2022-12-25T23:28:50.842Z,27.14
2022-12-25T23:29:50.789Z,27.11
2022-12-25T23:30:50.758Z,27.11
2022-12-25T23:31:50.783Z,27.11
2022-12-25T23:32:50.626Z,27.15
2022-12-25T23:33:50.565Z,27.18
2022-12-25T23:34:50.508Z,27.13
2022-12-25T23:35:50.483Z,27.14
2022-12-25T23:36:50.401Z,27.14
2022-12-25T23:37:50.337Z,27.15
2022-12-25T23:38:50.282Z,27.13
2022-12-25T23:39:50.244Z,27.07
2022-12-25T23:40:50.196Z,27.11
2022-12-25T23:41:50.101Z,27.11
